sensor_id;sensor_type;location;lat;lon;timestamp;temperature;humidity
71039;SHT30;58692;43.212;27.908;2022-11-20T00:01:34;16.73;88.86
71039;SHT30;58692;43.212;27.908;2022-11-20T00:04:00;16.72;88.87
71039;SHT30;58692;43.212;27.908;2022-11-20T00:06:27;16.69;88.91
71039;SHT30;58692;43.212;27.908;2022-11-20T00:08:55;16.72;89.22
71039;SHT30;58692;43.212;27.908;2022-11-20T00:11:23;16.64;89.06
71039;SHT30;58692;43.212;27.908;2022-11-20T00:13:52;16.68;88.98
71039;SHT30;58692;43.212;27.908;2022-11-20T00:16:21;16.62;89.55
71039;SHT30;58692;43.212;27.908;2022-11-20T00:18:47;16.62;89.51
71039;SHT30;58692;43.212;27.908;2022-11-20T00:21:16;16.55;89.76
71039;SHT30;58692;43.212;27.908;2022-11-20T00:23:42;16.54;89.56
71039;SHT30;58692;43.212;27.908;2022-11-20T00:26:11;16.45;90.08
71039;SHT30;58692;43.212;27.908;2022-11-20T00:28:37;16.40;90.24
71039;SHT30;58692;43.212;27.908;2022-11-20T00:31:05;16.44;90.16
71039;SHT30;58692;43.212;27.908;2022-11-20T00:33:31;16.51;90.29
71039;SHT30;58692;43.212;27.908;2022-11-20T00:36:01;16.51;90.15
71039;SHT30;58692;43.212;27.908;2022-11-20T00:38:27;16.48;90.25
71039;SHT30;58692;43.212;27.908;2022-11-20T00:40:57;16.49;90.22
71039;SHT30;58692;43.212;27.908;2022-11-20T00:43:23;16.42;90.73
71039;SHT30;58692;43.212;27.908;2022-11-20T00:45:49;16.38;90.78
71039;SHT30;58692;43.212;27.908;2022-11-20T00:48:14;16.42;90.70
71039;SHT30;58692;43.212;27.908;2022-11-20T00:50:41;16.47;90.44
71039;SHT30;58692;43.212;27.908;2022-11-20T00:53:07;16.48;90.47
71039;SHT30;58692;43.212;27.908;2022-11-20T00:55:32;16.51;90.42
71039;SHT30;58692;43.212;27.908;2022-11-20T00:57:58;16.49;90.01
71039;SHT30;58692;43.212;27.908;2022-11-20T01:00:23;16.54;90.16
71039;SHT30;58692;43.212;27.908;2022-11-20T01:02:48;16.54;90.15
71039;SHT30;58692;43.212;27.908;2022-11-20T01:05:14;16.52;90.09
71039;SHT30;58692;43.212;27.908;2022-11-20T01:07:39;16.55;90.16
71039;SHT30;58692;43.212;27.908;2022-11-20T01:10:05;16.44;89.96
71039;SHT30;58692;43.212;27.908;2022-11-20T01:12:31;16.51;90.87
71039;SHT30;58692;43.212;27.908;2022-11-20T01:14:56;16.56;90.81
71039;SHT30;58692;43.212;27.908;2022-11-20T01:17:22;16.65;90.58
71039;SHT30;58692;43.212;27.908;2022-11-20T01:19:49;16.72;90.40
71039;SHT30;58692;43.212;27.908;2022-11-20T01:22:16;16.75;90.17
71039;SHT30;58692;43.212;27.908;2022-11-20T01:24:41;16.73;90.10
71039;SHT30;58692;43.212;27.908;2022-11-20T01:27:07;16.75;89.95
71039;SHT30;58692;43.212;27.908;2022-11-20T01:29:32;16.80;90.42
71039;SHT30;58692;43.212;27.908;2022-11-20T01:31:57;16.89;90.10
71039;SHT30;58692;43.212;27.908;2022-11-20T01:34:23;17.00;89.97
71039;SHT30;58692;43.212;27.908;2022-11-20T01:36:49;16.99;89.49
71039;SHT30;58692;43.212;27.908;2022-11-20T01:39:19;16.99;89.96
71039;SHT30;58692;43.212;27.908;2022-11-20T01:41:45;17.02;89.79
71039;SHT30;58692;43.212;27.908;2022-11-20T01:44:44;17.05;89.67
71039;SHT30;58692;43.212;27.908;2022-11-20T01:47:14;17.07;89.55
71039;SHT30;58692;43.212;27.908;2022-11-20T01:49:47;17.06;89.66
71039;SHT30;58692;43.212;27.908;2022-11-20T01:52:16;17.02;89.38
71039;SHT30;58692;43.212;27.908;2022-11-20T01:54:49;16.98;89.54
71039;SHT30;58692;43.212;27.908;2022-11-20T01:57:16;17.00;89.92
71039;SHT30;58692;43.212;27.908;2022-11-20T01:59:49;17.00;89.88
71039;SHT30;58692;43.212;27.908;2022-11-20T02:02:17;17.06;89.33
71039;SHT30;58692;43.212;27.908;2022-11-20T02:04:44;17.17;89.41
71039;SHT30;58692;43.212;27.908;2022-11-20T02:07:09;17.33;89.24
71039;SHT30;58692;43.212;27.908;2022-11-20T02:09:35;17.37;88.76
71039;SHT30;58692;43.212;27.908;2022-11-20T02:12:01;17.40;88.55
71039;SHT30;58692;43.212;27.908;2022-11-20T02:14:28;17.41;88.43
71039;SHT30;58692;43.212;27.908;2022-11-20T02:16:54;17.47;88.31
71039;SHT30;58692;43.212;27.908;2022-11-20T02:19:28;17.47;88.05
71039;SHT30;58692;43.212;27.908;2022-11-20T02:24:22;17.44;88.26
71039;SHT30;58692;43.212;27.908;2022-11-20T02:26:55;17.40;88.39
71039;SHT30;58692;43.212;27.908;2022-11-20T02:29:26;17.36;88.29
71039;SHT30;58692;43.212;27.908;2022-11-20T02:31:53;17.34;88.54
71039;SHT30;58692;43.212;27.908;2022-11-20T02:34:20;17.34;88.24
71039;SHT30;58692;43.212;27.908;2022-11-20T02:36:46;17.30;88.50
71039;SHT30;58692;43.212;27.908;2022-11-20T02:39:14;17.23;88.57
71039;SHT30;58692;43.212;27.908;2022-11-20T02:41:42;17.19;88.71
71039;SHT30;58692;43.212;27.908;2022-11-20T02:44:08;17.22;88.67
71039;SHT30;58692;43.212;27.908;2022-11-20T02:46:34;17.16;89.03
71039;SHT30;58692;43.212;27.908;2022-11-20T02:49:01;17.17;89.00
71039;SHT30;58692;43.212;27.908;2022-11-20T02:51:26;17.16;89.38
71039;SHT30;58692;43.212;27.908;2022-11-20T02:53:52;17.24;89.15
71039;SHT30;58692;43.212;27.908;2022-11-20T02:56:17;17.31;88.83
71039;SHT30;58692;43.212;27.908;2022-11-20T02:58:43;17.33;88.75
71039;SHT30;58692;43.212;27.908;2022-11-20T03:01:08;17.36;88.48
71039;SHT30;58692;43.212;27.908;2022-11-20T03:03:34;17.39;88.33
71039;SHT30;58692;43.212;27.908;2022-11-20T03:06:00;17.41;88.31
71039;SHT30;58692;43.212;27.908;2022-11-20T03:08:25;17.51;87.82
71039;SHT30;58692;43.212;27.908;2022-11-20T03:10:51;17.51;87.92
71039;SHT30;58692;43.212;27.908;2022-11-20T03:13:17;17.50;87.81
71039;SHT30;58692;43.212;27.908;2022-11-20T03:15:42;17.53;87.82
71039;SHT30;58692;43.212;27.908;2022-11-20T03:18:08;17.57;87.79
71039;SHT30;58692;43.212;27.908;2022-11-20T03:20:33;17.57;87.65
71039;SHT30;58692;43.212;27.908;2022-11-20T03:22:59;17.53;87.64
71039;SHT30;58692;43.212;27.908;2022-11-20T03:25:25;17.50;87.78
71039;SHT30;58692;43.212;27.908;2022-11-20T03:27:51;17.64;87.42
71039;SHT30;58692;43.212;27.908;2022-11-20T03:30:16;17.64;87.32
71039;SHT30;58692;43.212;27.908;2022-11-20T03:32:42;17.63;87.29
71039;SHT30;58692;43.212;27.908;2022-11-20T03:35:08;17.59;87.37
71039;SHT30;58692;43.212;27.908;2022-11-20T03:37:33;17.61;87.30
71039;SHT30;58692;43.212;27.908;2022-11-20T03:39:59;17.70;87.02
71039;SHT30;58692;43.212;27.908;2022-11-20T03:42:24;17.67;86.88
71039;SHT30;58692;43.212;27.908;2022-11-20T03:45:05;17.66;86.78
71039;SHT30;58692;43.212;27.908;2022-11-20T03:47:31;17.66;86.82
71039;SHT30;58692;43.212;27.908;2022-11-20T03:49:57;17.57;87.06
71039;SHT30;58692;43.212;27.908;2022-11-20T03:52:22;17.55;87.14
71039;SHT30;58692;43.212;27.908;2022-11-20T03:54:47;17.51;87.23
71039;SHT30;58692;43.212;27.908;2022-11-20T03:57:13;17.49;87.26
71039;SHT30;58692;43.212;27.908;2022-11-20T03:59:38;17.46;87.14
71039;SHT30;58692;43.212;27.908;2022-11-20T04:02:04;17.44;87.22
71039;SHT30;58692;43.212;27.908;2022-11-20T04:04:29;17.53;86.85
71039;SHT30;58692;43.212;27.908;2022-11-20T04:06:55;17.53;86.66
71039;SHT30;58692;43.212;27.908;2022-11-20T04:09:20;17.63;86.19
71039;SHT30;58692;43.212;27.908;2022-11-20T04:11:46;17.73;85.83
71039;SHT30;58692;43.212;27.908;2022-11-20T04:14:14;17.74;85.69
71039;SHT30;58692;43.212;27.908;2022-11-20T04:16:40;17.71;85.76
71039;SHT30;58692;43.212;27.908;2022-11-20T04:19:10;17.74;85.64
71039;SHT30;58692;43.212;27.908;2022-11-20T04:21:37;17.66;85.84
71039;SHT30;58692;43.212;27.908;2022-11-20T04:24:02;17.81;85.49
71039;SHT30;58692;43.212;27.908;2022-11-20T04:26:29;17.74;85.44
71039;SHT30;58692;43.212;27.908;2022-11-20T04:28:56;17.84;85.28
71039;SHT30;58692;43.212;27.908;2022-11-20T04:31:26;17.88;85.17
71039;SHT30;58692;43.212;27.908;2022-11-20T04:33:52;17.94;84.84
71039;SHT30;58692;43.212;27.908;2022-11-20T04:36:20;18.02;84.45
71039;SHT30;58692;43.212;27.908;2022-11-20T04:38:49;17.97;84.69
71039;SHT30;58692;43.212;27.908;2022-11-20T04:41:17;17.80;85.08
71039;SHT30;58692;43.212;27.908;2022-11-20T04:43:47;17.95;84.42
71039;SHT30;58692;43.212;27.908;2022-11-20T04:46:14;18.15;83.43
71039;SHT30;58692;43.212;27.908;2022-11-20T04:48:39;18.21;83.05
71039;SHT30;58692;43.212;27.908;2022-11-20T04:51:05;18.26;82.84
71039;SHT30;58692;43.212;27.908;2022-11-20T04:53:30;18.21;83.00
71039;SHT30;58692;43.212;27.908;2022-11-20T04:56:00;18.12;83.33
71039;SHT30;58692;43.212;27.908;2022-11-20T04:58:26;18.15;83.19
71039;SHT30;58692;43.212;27.908;2022-11-20T05:00:52;18.18;83.03
71039;SHT30;58692;43.212;27.908;2022-11-20T05:03:17;18.06;83.28
71039;SHT30;58692;43.212;27.908;2022-11-20T05:05:43;18.02;83.60
71039;SHT30;58692;43.212;27.908;2022-11-20T05:08:08;18.04;83.46
71039;SHT30;58692;43.212;27.908;2022-11-20T05:10:34;18.08;83.26
71039;SHT30;58692;43.212;27.908;2022-11-20T05:12:59;18.15;82.95
71039;SHT30;58692;43.212;27.908;2022-11-20T05:15:24;18.18;82.74
71039;SHT30;58692;43.212;27.908;2022-11-20T05:17:51;18.28;82.38
71039;SHT30;58692;43.212;27.908;2022-11-20T05:20:18;18.31;82.15
71039;SHT30;58692;43.212;27.908;2022-11-20T05:22:44;18.25;82.23
71039;SHT30;58692;43.212;27.908;2022-11-20T05:25:11;18.31;81.94
71039;SHT30;58692;43.212;27.908;2022-11-20T05:27:37;18.25;82.18
71039;SHT30;58692;43.212;27.908;2022-11-20T05:30:04;18.33;81.82
71039;SHT30;58692;43.212;27.908;2022-11-20T05:32:30;18.22;82.19
71039;SHT30;58692;43.212;27.908;2022-11-20T05:34:55;18.19;82.39
71039;SHT30;58692;43.212;27.908;2022-11-20T05:37:21;18.13;82.56
71039;SHT30;58692;43.212;27.908;2022-11-20T05:39:46;18.11;82.63
71039;SHT30;58692;43.212;27.908;2022-11-20T05:42:12;18.13;82.56
71039;SHT30;58692;43.212;27.908;2022-11-20T05:44:53;18.12;82.63
71039;SHT30;58692;43.212;27.908;2022-11-20T05:47:18;18.09;82.61
71039;SHT30;58692;43.212;27.908;2022-11-20T05:49:43;18.08;82.73
71039;SHT30;58692;43.212;27.908;2022-11-20T05:52:09;18.08;82.87
71039;SHT30;58692;43.212;27.908;2022-11-20T05:54:34;18.02;83.07
71039;SHT30;58692;43.212;27.908;2022-11-20T05:57:00;17.98;83.16
71039;SHT30;58692;43.212;27.908;2022-11-20T05:59:25;18.06;82.78
71039;SHT30;58692;43.212;27.908;2022-11-20T06:01:51;18.13;82.39
71039;SHT30;58692;43.212;27.908;2022-11-20T06:04:16;18.16;82.40
71039;SHT30;58692;43.212;27.908;2022-11-20T06:06:42;18.18;82.34
71039;SHT30;58692;43.212;27.908;2022-11-20T06:09:07;18.21;82.29
71039;SHT30;58692;43.212;27.908;2022-11-20T06:11:33;18.22;82.22
71039;SHT30;58692;43.212;27.908;2022-11-20T06:13:58;18.21;82.18
71039;SHT30;58692;43.212;27.908;2022-11-20T06:16:24;18.18;82.28
71039;SHT30;58692;43.212;27.908;2022-11-20T06:18:49;18.24;82.02
71039;SHT30;58692;43.212;27.908;2022-11-20T06:21:17;18.29;81.86
71039;SHT30;58692;43.212;27.908;2022-11-20T06:23:43;18.32;81.75
71039;SHT30;58692;43.212;27.908;2022-11-20T06:26:12;18.36;81.53
71039;SHT30;58692;43.212;27.908;2022-11-20T06:28:38;18.33;81.64
71039;SHT30;58692;43.212;27.908;2022-11-20T06:31:05;18.41;81.37
71039;SHT30;58692;43.212;27.908;2022-11-20T06:33:31;18.48;80.99
71039;SHT30;58692;43.212;27.908;2022-11-20T06:35:58;18.55;80.61
71039;SHT30;58692;43.212;27.908;2022-11-20T06:38:25;19.11;79.01
71039;SHT30;58692;43.212;27.908;2022-11-20T06:40:50;19.65;77.22
71039;SHT30;58692;43.212;27.908;2022-11-20T06:43:16;19.24;78.24
71039;SHT30;58692;43.212;27.908;2022-11-20T06:45:41;19.07;78.88
71039;SHT30;58692;43.212;27.908;2022-11-20T06:48:08;19.00;78.89
71039;SHT30;58692;43.212;27.908;2022-11-20T06:50:36;19.00;79.22
71039;SHT30;58692;43.212;27.908;2022-11-20T06:53:02;18.92;79.33
71039;SHT30;58692;43.212;27.908;2022-11-20T06:55:28;18.89;79.43
71039;SHT30;58692;43.212;27.908;2022-11-20T06:57:54;18.93;79.14
71039;SHT30;58692;43.212;27.908;2022-11-20T07:00:19;18.99;79.07
71039;SHT30;58692;43.212;27.908;2022-11-20T07:02:45;18.99;78.94
71039;SHT30;58692;43.212;27.908;2022-11-20T07:05:10;19.02;79.05
71039;SHT30;58692;43.212;27.908;2022-11-20T07:07:36;19.06;78.99
71039;SHT30;58692;43.212;27.908;2022-11-20T07:10:02;18.99;79.19
71039;SHT30;58692;43.212;27.908;2022-11-20T07:12:27;19.00;79.31
71039;SHT30;58692;43.212;27.908;2022-11-20T07:14:53;18.93;79.58
71039;SHT30;58692;43.212;27.908;2022-11-20T07:17:18;19.00;79.10
71039;SHT30;58692;43.212;27.908;2022-11-20T07:19:44;19.02;79.27
71039;SHT30;58692;43.212;27.908;2022-11-20T07:22:09;18.94;79.56
71039;SHT30;58692;43.212;27.908;2022-11-20T07:24:35;19.03;78.93
71039;SHT30;58692;43.212;27.908;2022-11-20T07:27:00;19.04;78.95
71039;SHT30;58692;43.212;27.908;2022-11-20T07:29:26;19.06;78.92
71039;SHT30;58692;43.212;27.908;2022-11-20T07:31:51;19.20;78.60
71039;SHT30;58692;43.212;27.908;2022-11-20T07:34:17;19.32;77.98
71039;SHT30;58692;43.212;27.908;2022-11-20T07:36:42;19.48;77.56
71039;SHT30;58692;43.212;27.908;2022-11-20T07:39:08;19.54;77.42
71039;SHT30;58692;43.212;27.908;2022-11-20T07:41:33;19.57;77.40
71039;SHT30;58692;43.212;27.908;2022-11-20T07:43:59;19.65;77.09
71039;SHT30;58692;43.212;27.908;2022-11-20T07:46:24;19.72;76.94
71039;SHT30;58692;43.212;27.908;2022-11-20T07:48:50;19.79;76.73
71039;SHT30;58692;43.212;27.908;2022-11-20T07:51:15;19.82;76.43
71039;SHT30;58692;43.212;27.908;2022-11-20T07:53:41;19.90;76.23
71039;SHT30;58692;43.212;27.908;2022-11-20T07:56:06;19.98;76.15
71039;SHT30;58692;43.212;27.908;2022-11-20T07:58:32;19.89;76.24
71039;SHT30;58692;43.212;27.908;2022-11-20T08:01:04;19.88;76.36
71039;SHT30;58692;43.212;27.908;2022-11-20T08:03:30;19.96;76.13
71039;SHT30;58692;43.212;27.908;2022-11-20T08:05:58;20.05;75.68
71039;SHT30;58692;43.212;27.908;2022-11-20T08:08:24;20.09;75.69
71039;SHT30;58692;43.212;27.908;2022-11-20T08:10:50;20.15;75.70
71039;SHT30;58692;43.212;27.908;2022-11-20T08:13:15;20.08;75.81
71039;SHT30;58692;43.212;27.908;2022-11-20T08:15:56;20.02;75.89
71039;SHT30;58692;43.212;27.908;2022-11-20T08:18:21;20.08;75.79
71039;SHT30;58692;43.212;27.908;2022-11-20T08:20:47;20.08;75.84
71039;SHT30;58692;43.212;27.908;2022-11-20T08:23:12;20.16;75.51
71039;SHT30;58692;43.212;27.908;2022-11-20T08:25:38;20.12;75.49
71039;SHT30;58692;43.212;27.908;2022-11-20T08:28:07;20.13;75.44
71039;SHT30;58692;43.212;27.908;2022-11-20T08:30:34;20.15;75.27
71039;SHT30;58692;43.212;27.908;2022-11-20T08:33:02;20.12;75.53
71039;SHT30;58692;43.212;27.908;2022-11-20T08:35:27;20.16;75.57
71039;SHT30;58692;43.212;27.908;2022-11-20T08:37:53;20.13;75.41
71039;SHT30;58692;43.212;27.908;2022-11-20T08:40:18;20.13;75.70
71039;SHT30;58692;43.212;27.908;2022-11-20T08:42:46;20.13;75.46
71039;SHT30;58692;43.212;27.908;2022-11-20T08:45:13;20.12;75.64
71039;SHT30;58692;43.212;27.908;2022-11-20T08:47:38;20.12;75.46
71039;SHT30;58692;43.212;27.908;2022-11-20T08:50:04;20.16;75.29
71039;SHT30;58692;43.212;27.908;2022-11-20T08:52:29;20.15;75.16
71039;SHT30;58692;43.212;27.908;2022-11-20T08:54:55;20.19;75.06
71039;SHT30;58692;43.212;27.908;2022-11-20T08:57:20;20.22;74.97
71039;SHT30;58692;43.212;27.908;2022-11-20T08:59:46;20.22;74.89
71039;SHT30;58692;43.212;27.908;2022-11-20T09:02:11;20.22;74.99
71039;SHT30;58692;43.212;27.908;2022-11-20T09:04:37;20.18;75.12
71039;SHT30;58692;43.212;27.908;2022-11-20T09:07:02;20.20;75.03
71039;SHT30;58692;43.212;27.908;2022-11-20T09:09:28;20.12;75.13
71039;SHT30;58692;43.212;27.908;2022-11-20T09:11:53;20.16;75.22
71039;SHT30;58692;43.212;27.908;2022-11-20T09:14:19;20.12;75.33
71039;SHT30;58692;43.212;27.908;2022-11-20T09:16:46;20.20;74.91
71039;SHT30;58692;43.212;27.908;2022-11-20T09:19:12;20.22;74.91
71039;SHT30;58692;43.212;27.908;2022-11-20T09:21:37;20.23;74.86
71039;SHT30;58692;43.212;27.908;2022-11-20T09:24:04;20.22;74.76
71039;SHT30;58692;43.212;27.908;2022-11-20T09:26:30;20.28;74.63
71039;SHT30;58692;43.212;27.908;2022-11-20T09:28:55;20.33;74.40
71039;SHT30;58692;43.212;27.908;2022-11-20T09:31:23;20.34;74.23
71039;SHT30;58692;43.212;27.908;2022-11-20T09:33:49;20.33;74.48
71039;SHT30;58692;43.212;27.908;2022-11-20T09:36:15;20.29;74.64
71039;SHT30;58692;43.212;27.908;2022-11-20T09:38:42;20.29;74.63
71039;SHT30;58692;43.212;27.908;2022-11-20T09:44:24;20.30;74.28
71039;SHT30;58692;43.212;27.908;2022-11-20T09:47:08;20.30;74.35
71039;SHT30;58692;43.212;27.908;2022-11-20T09:54:47;20.39;73.67
71039;SHT30;58692;43.212;27.908;2022-11-20T09:57:17;20.41;73.55
71039;SHT30;58692;43.212;27.908;2022-11-20T09:59:47;20.41;73.26
71039;SHT30;58692;43.212;27.908;2022-11-20T10:02:29;20.49;73.12
71039;SHT30;58692;43.212;27.908;2022-11-20T10:05:12;20.46;72.97
71039;SHT30;58692;43.212;27.908;2022-11-20T10:07:47;20.56;72.90
71039;SHT30;58692;43.212;27.908;2022-11-20T10:10:17;20.57;72.97
71039;SHT30;58692;43.212;27.908;2022-11-20T10:15:33;20.51;73.03
71039;SHT30;58692;43.212;27.908;2022-11-20T10:21:02;20.44;73.22
71039;SHT30;58692;43.212;27.908;2022-11-20T10:31:29;20.34;73.52
71039;SHT30;58692;43.212;27.908;2022-11-20T10:33:58;20.36;73.43
71039;SHT30;58692;43.212;27.908;2022-11-20T10:36:29;20.32;73.54
71039;SHT30;58692;43.212;27.908;2022-11-20T10:38:59;20.25;73.82
71039;SHT30;58692;43.212;27.908;2022-11-20T10:41:30;20.28;73.80
71039;SHT30;58692;43.212;27.908;2022-11-20T10:46:24;20.30;73.83
71039;SHT30;58692;43.212;27.908;2022-11-20T10:48:51;20.23;73.86
71039;SHT30;58692;43.212;27.908;2022-11-20T10:51:37;20.23;73.77
71039;SHT30;58692;43.212;27.908;2022-11-20T10:54:35;20.23;73.89
71039;SHT30;58692;43.212;27.908;2022-11-20T10:57:20;20.28;73.64
71039;SHT30;58692;43.212;27.908;2022-11-20T11:00:00;20.22;73.90
71039;SHT30;58692;43.212;27.908;2022-11-20T11:02:41;20.29;73.29
71039;SHT30;58692;43.212;27.908;2022-11-20T11:07:42;20.29;73.34
71039;SHT30;58692;43.212;27.908;2022-11-20T11:12:50;20.22;73.58
71039;SHT30;58692;43.212;27.908;2022-11-20T11:15:39;20.20;73.60
71039;SHT30;58692;43.212;27.908;2022-11-20T11:18:07;20.19;73.79
71039;SHT30;58692;43.212;27.908;2022-11-20T11:20:34;20.22;73.56
71039;SHT30;58692;43.212;27.908;2022-11-20T11:23:00;20.19;73.57
71039;SHT30;58692;43.212;27.908;2022-11-20T11:27:55;20.13;73.88
71039;SHT30;58692;43.212;27.908;2022-11-20T11:30:22;20.12;73.95
71039;SHT30;58692;43.212;27.908;2022-11-20T11:32:48;20.12;74.08
71039;SHT30;58692;43.212;27.908;2022-11-20T11:35:25;20.04;74.27
71039;SHT30;58692;43.212;27.908;2022-11-20T11:37:54;20.08;74.14
71039;SHT30;58692;43.212;27.908;2022-11-20T11:40:21;20.10;74.00
71039;SHT30;58692;43.212;27.908;2022-11-20T11:43:05;20.05;73.98
71039;SHT30;58692;43.212;27.908;2022-11-20T11:45:54;20.00;74.15
71039;SHT30;58692;43.212;27.908;2022-11-20T11:48:20;19.99;74.38
71039;SHT30;58692;43.212;27.908;2022-11-20T11:50:50;19.99;74.25
71039;SHT30;58692;43.212;27.908;2022-11-20T11:53:18;19.93;74.55
71039;SHT30;58692;43.212;27.908;2022-11-20T11:55:58;19.95;74.43
71039;SHT30;58692;43.212;27.908;2022-11-20T11:58:44;19.96;74.40
71039;SHT30;58692;43.212;27.908;2022-11-20T12:04:00;19.90;74.36
71039;SHT30;58692;43.212;27.908;2022-11-20T12:06:28;19.92;74.17
71039;SHT30;58692;43.212;27.908;2022-11-20T12:09:01;19.89;74.24
71039;SHT30;58692;43.212;27.908;2022-11-20T12:11:36;19.89;74.21
71039;SHT30;58692;43.212;27.908;2022-11-20T12:16:34;19.92;74.12
71039;SHT30;58692;43.212;27.908;2022-11-20T12:19:00;19.96;73.94
71039;SHT30;58692;43.212;27.908;2022-11-20T12:34:30;19.88;74.11
71039;SHT30;58692;43.212;27.908;2022-11-20T12:37:10;19.93;73.77
71039;SHT30;58692;43.212;27.908;2022-11-20T12:39:42;19.98;73.62
71039;SHT30;58692;43.212;27.908;2022-11-20T12:42:25;20.06;73.19
71039;SHT30;58692;43.212;27.908;2022-11-20T12:50:22;20.09;73.04
71039;SHT30;58692;43.212;27.908;2022-11-20T12:52:56;20.13;72.96
71039;SHT30;58692;43.212;27.908;2022-11-20T12:58:03;20.10;72.96
71039;SHT30;58692;43.212;27.908;2022-11-20T13:00:31;20.09;73.08
71039;SHT30;58692;43.212;27.908;2022-11-20T13:06:17;20.13;72.90
71039;SHT30;58692;43.212;27.908;2022-11-20T13:08:31;20.10;73.12
71039;SHT30;58692;43.212;27.908;2022-11-20T13:11:23;20.08;73.19
71039;SHT30;58692;43.212;27.908;2022-11-20T13:19:15;20.04;73.32
71039;SHT30;58692;43.212;27.908;2022-11-20T13:21:45;20.00;73.37
71039;SHT30;58692;43.212;27.908;2022-11-20T13:24:23;20.00;73.38
71039;SHT30;58692;43.212;27.908;2022-11-20T13:29:35;20.06;72.86
71039;SHT30;58692;43.212;27.908;2022-11-20T13:34:29;20.05;72.95
71039;SHT30;58692;43.212;27.908;2022-11-20T13:36:57;20.00;73.12
71039;SHT30;58692;43.212;27.908;2022-11-20T13:39:25;20.02;73.14
71039;SHT30;58692;43.212;27.908;2022-11-20T13:41:57;19.99;73.17
71039;SHT30;58692;43.212;27.908;2022-11-20T13:46:51;19.92;73.60
71039;SHT30;58692;43.212;27.908;2022-11-20T13:49:21;19.89;73.64
71039;SHT30;58692;43.212;27.908;2022-11-20T13:51:50;19.82;73.91
71039;SHT30;58692;43.212;27.908;2022-11-20T13:54:43;19.86;73.81
71039;SHT30;58692;43.212;27.908;2022-11-20T13:57:24;19.83;73.90
71039;SHT30;58692;43.212;27.908;2022-11-20T14:02:35;19.83;73.74
71039;SHT30;58692;43.212;27.908;2022-11-20T14:05:01;19.83;73.66
71039;SHT30;58692;43.212;27.908;2022-11-20T14:07:35;19.88;73.59
71039;SHT30;58692;43.212;27.908;2022-11-20T14:10:01;19.89;73.63
71039;SHT30;58692;43.212;27.908;2022-11-20T14:12:29;19.88;73.50
71039;SHT30;58692;43.212;27.908;2022-11-20T14:14:55;19.83;73.70
71039;SHT30;58692;43.212;27.908;2022-11-20T14:19:50;19.78;73.99
71039;SHT30;58692;43.212;27.908;2022-11-20T14:22:22;19.79;74.04
71039;SHT30;58692;43.212;27.908;2022-11-20T14:25:00;19.77;74.07
71039;SHT30;58692;43.212;27.908;2022-11-20T14:27:26;19.69;74.22
71039;SHT30;58692;43.212;27.908;2022-11-20T14:29:52;19.71;74.24
71039;SHT30;58692;43.212;27.908;2022-11-20T14:32:19;19.65;74.40
71039;SHT30;58692;43.212;27.908;2022-11-20T14:34:49;19.62;74.38
71039;SHT30;58692;43.212;27.908;2022-11-20T14:37:21;19.64;74.49
71039;SHT30;58692;43.212;27.908;2022-11-20T14:39:54;19.59;74.51
71039;SHT30;58692;43.212;27.908;2022-11-20T14:42:23;19.55;74.74
71039;SHT30;58692;43.212;27.908;2022-11-20T14:44:49;19.47;74.90
71039;SHT30;58692;43.212;27.908;2022-11-20T14:47:19;19.43;75.06
71039;SHT30;58692;43.212;27.908;2022-11-20T14:49:45;19.47;74.75
71039;SHT30;58692;43.212;27.908;2022-11-20T14:52:17;19.43;74.85
71039;SHT30;58692;43.212;27.908;2022-11-20T14:57:23;19.45;74.89
71039;SHT30;58692;43.212;27.908;2022-11-20T14:59:49;19.39;74.79
71039;SHT30;58692;43.212;27.908;2022-11-20T15:02:15;19.35;75.04
71039;SHT30;58692;43.212;27.908;2022-11-20T15:07:11;19.27;76.40
71039;SHT30;58692;43.212;27.908;2022-11-20T15:09:47;19.06;77.26
71039;SHT30;58692;43.212;27.908;2022-11-20T15:12:23;19.04;77.48
71039;SHT30;58692;43.212;27.908;2022-11-20T15:14:49;18.73;78.96
71039;SHT30;58692;43.212;27.908;2022-11-20T15:17:15;18.63;79.63
71039;SHT30;58692;43.212;27.908;2022-11-20T15:19:41;18.46;80.85
71039;SHT30;58692;43.212;27.908;2022-11-20T15:22:11;18.41;81.12
71039;SHT30;58692;43.212;27.908;2022-11-20T15:24:38;18.42;81.06
71039;SHT30;58692;43.212;27.908;2022-11-20T15:27:03;18.42;81.30
71039;SHT30;58692;43.212;27.908;2022-11-20T15:29:29;18.31;81.81
71039;SHT30;58692;43.212;27.908;2022-11-20T15:31:54;18.21;82.38
71039;SHT30;58692;43.212;27.908;2022-11-20T15:34:21;18.09;83.03
71039;SHT30;58692;43.212;27.908;2022-11-20T15:36:46;18.02;83.28
71039;SHT30;58692;43.212;27.908;2022-11-20T15:39:12;17.95;83.67
71039;SHT30;58692;43.212;27.908;2022-11-20T15:41:38;17.95;83.75
71039;SHT30;58692;43.212;27.908;2022-11-20T15:44:05;17.92;83.92
71039;SHT30;58692;43.212;27.908;2022-11-20T15:46:32;17.82;84.42
71039;SHT30;58692;43.212;27.908;2022-11-20T15:49:02;17.81;84.38
71039;SHT30;58692;43.212;27.908;2022-11-20T15:51:31;17.81;84.30
71039;SHT30;58692;43.212;27.908;2022-11-20T15:53:58;17.71;84.75
71039;SHT30;58692;43.212;27.908;2022-11-20T15:56:23;17.63;85.15
71039;SHT30;58692;43.212;27.908;2022-11-20T15:58:49;17.57;85.42
71039;SHT30;58692;43.212;27.908;2022-11-20T16:01:17;17.60;85.33
71039;SHT30;58692;43.212;27.908;2022-11-20T16:03:44;17.60;85.24
71039;SHT30;58692;43.212;27.908;2022-11-20T16:06:09;17.51;85.50
71039;SHT30;58692;43.212;27.908;2022-11-20T16:08:35;17.55;85.37
71039;SHT30;58692;43.212;27.908;2022-11-20T16:11:00;17.63;84.97
71039;SHT30;58692;43.212;27.908;2022-11-20T16:13:26;17.60;84.85
71039;SHT30;58692;43.212;27.908;2022-11-20T16:16:23;17.64;84.70
71039;SHT30;58692;43.212;27.908;2022-11-20T16:18:49;17.66;84.52
71039;SHT30;58692;43.212;27.908;2022-11-20T16:21:15;17.64;84.10
71039;SHT30;58692;43.212;27.908;2022-11-20T16:23:41;17.71;83.77
71039;SHT30;58692;43.212;27.908;2022-11-20T16:26:10;17.81;83.25
71039;SHT30;58692;43.212;27.908;2022-11-20T16:28:35;17.81;82.65
71039;SHT30;58692;43.212;27.908;2022-11-20T16:31:17;17.88;82.62
71039;SHT30;58692;43.212;27.908;2022-11-20T16:33:53;17.90;79.58
71039;SHT30;58692;43.212;27.908;2022-11-20T16:36:20;18.02;80.16
71039;SHT30;58692;43.212;27.908;2022-11-20T16:38:46;18.05;80.91
71039;SHT30;58692;43.212;27.908;2022-11-20T16:41:11;18.01;81.17
71039;SHT30;58692;43.212;27.908;2022-11-20T16:46:09;18.01;79.90
71039;SHT30;58692;43.212;27.908;2022-11-20T16:48:35;18.05;80.65
71039;SHT30;58692;43.212;27.908;2022-11-20T16:51:00;18.04;79.73